Time;durP1;ratioP1;P1;durP2;ratioP2;P2;SDS_P1;SDS_P2;PMS_P1;PMS_P2;Temp;Humidity;BMP_temperature;BMP_pressure;BME280_temperature;BME280_humidity;BME280_pressure;Samples;Min_cycle;Max_cycle;Signal;HPM_P1;HPM_P2
2021/08/06 00:02:25;;;;;;;;;6.50;6.50;;;;;24.69;45.83;99986.34;5036741;28;51146;-56
2021/08/06 00:04:50;;;;;;;;;9.50;6.00;;;;;24.68;46.07;99979.16;5036583;28;51029;-57
2021/08/06 00:07:16;;;;;;;;;8.00;8.00;;;;;24.69;45.81;99989.13;5036115;28;51886;-57
2021/08/06 00:09:41;;;;;;;;;7.50;7.50;;;;;24.70;46.21;99990.00;5036577;28;51036;-57
2021/08/06 00:12:07;;;;;;;;;7.25;6.00;;;;;24.68;46.22;99981.94;5036226;28;50987;-57
2021/08/06 00:14:33;;;;;;;;;10.00;9.75;;;;;24.69;45.88;99994.66;5036673;28;51064;-55
2021/08/06 00:16:59;;;;;;;;;5.50;5.00;;;;;24.69;46.13;99991.91;5036220;28;51996;-57
2021/08/06 00:19:24;;;;;;;;;7.00;7.00;;;;;24.69;46.14;100000.22;5035937;28;51116;-56
2021/08/06 00:21:50;;;;;;;;;7.25;6.75;;;;;24.69;46.11;99996.59;5035633;28;51077;-57
2021/08/06 00:24:16;;;;;;;;;10.25;6.75;;;;;24.67;46.22;99996.88;5036542;28;50964;-55
2021/08/06 00:26:42;;;;;;;;;7.75;6.50;;;;;24.68;46.08;99993.00;5035671;28;51793;-57
2021/08/06 00:29:09;;;;;;;;;6.50;6.50;;;;;24.68;45.87;99993.00;5036084;28;50987;-56
2021/08/06 00:31:35;;;;;;;;;11.25;9.25;;;;;24.67;45.93;99994.09;5036200;28;51116;-56
2021/08/06 00:34:00;;;;;;;;;9.25;8.25;;;;;24.68;46.03;99993.00;5036240;28;51300;-57
2021/08/06 00:36:26;;;;;;;;;11.00;10.00;;;;;24.66;45.69;99992.44;5035859;28;57602;-57
2021/08/06 00:38:51;;;;;;;;;7.75;6.75;;;;;24.68;46.14;99984.69;5035977;28;51143;-56
2021/08/06 00:41:16;;;;;;;;;9.75;7.50;;;;;24.68;46.03;99997.72;5035804;28;51042;-56
2021/08/06 00:43:42;;;;;;;;;13.75;8.75;;;;;24.67;45.81;99993.28;5036055;28;51166;-54
2021/08/06 00:46:07;;;;;;;;;10.50;9.00;;;;;24.68;46.06;100001.31;5035686;28;50995;-56
2021/08/06 00:48:33;;;;;;;;;8.50;5.75;;;;;24.67;46.05;99996.88;5035612;28;51070;-57
2021/08/06 00:50:59;;;;;;;;;9.00;9.00;;;;;24.67;46.14;99991.34;5035915;28;51074;-56
2021/08/06 00:53:25;;;;;;;;;12.25;10.00;;;;;24.67;46.18;99996.03;5035881;28;51064;-56
2021/08/06 00:55:51;;;;;;;;;9.75;9.00;;;;;24.67;46.09;99988.56;5035429;28;51074;-57
2021/08/06 00:58:16;;;;;;;;;13.25;8.00;;;;;24.66;46.20;99995.22;5035797;28;50900;-56
2021/08/06 01:00:42;;;;;;;;;12.25;9.75;;;;;24.66;46.15;99992.44;5035943;28;50970;-57
2021/08/06 01:03:46;;;;;;;;;10.00;9.25;;;;;24.67;45.85;99999.66;5035783;28;51229;-56
2021/08/06 01:06:20;;;;;;;;;9.00;8.50;;;;;24.67;46.06;100001.59;5035493;28;51124;-57
2021/08/06 01:08:58;;;;;;;;;11.00;9.25;;;;;24.66;45.98;100009.06;5035724;28;50999;-57
2021/08/06 01:11:27;;;;;;;;;12.50;8.50;;;;;24.66;46.02;99995.22;5035542;28;51089;-56
2021/08/06 01:13:57;;;;;;;;;13.00;9.00;;;;;24.66;46.24;99998.00;5035937;28;51015;-57
2021/08/06 01:16:46;;;;;;;;;11.75;9.50;;;;;24.66;45.68;99999.91;5035580;28;52186;-56
2021/08/06 01:19:25;;;;;;;;;8.75;8.50;;;;;24.66;45.97;99997.16;5035418;28;51410;-57
2021/08/06 01:22:02;;;;;;;;;9.75;9.25;;;;;24.65;45.82;100004.63;5035546;28;51049;-56
2021/08/06 01:24:28;;;;;;;;;8.50;8.50;;;;;24.66;46.15;99999.91;5035522;28;51100;-57
2021/08/06 01:26:55;;;;;;;;;8.50;7.25;;;;;24.65;46.20;99993.56;5034987;28;51050;-55
2021/08/06 01:29:21;;;;;;;;;7.75;6.25;;;;;24.65;45.88;99988.03;5035166;28;51049;-56
2021/08/06 01:31:48;;;;;;;;;6.00;6.00;;;;;24.65;45.92;99992.72;5035247;28;51080;-55
2021/08/06 01:34:14;;;;;;;;;5.75;5.75;;;;;24.65;46.04;99999.09;5038816;28;50959;-56
2021/08/06 01:36:39;;;;;;;;;8.50;6.50;;;;;24.65;46.09;100001.03;5038780;28;51747;-56
2021/08/06 01:39:05;;;;;;;;;5.75;4.50;;;;;24.64;45.91;100002.13;5038735;28;51193;-57
2021/08/06 01:41:37;;;;;;;;;7.75;5.25;;;;;24.65;45.78;100003.81;5038421;28;51014;-56
2021/08/06 01:44:32;;;;;;;;;5.75;5.00;;;;;24.64;45.75;99991.88;5039208;28;51007;-56
2021/08/06 01:47:06;;;;;;;;;5.00;5.00;;;;;24.65;45.88;99996.31;5038994;28;51125;-56
2021/08/06 01:49:41;;;;;;;;;8.50;6.00;;;;;24.64;46.10;99991.06;5038501;28;51025;-55
2021/08/06 01:52:11;;;;;;;;;7.00;5.75;;;;;24.64;45.83;99993.84;5038890;28;50998;-54
2021/08/06 01:54:39;;;;;;;;;6.50;6.00;;;;;24.64;45.78;99993.84;5038636;28;50898;-56
2021/08/06 01:57:06;;;;;;;;;7.50;6.75;;;;;24.62;46.14;99993.28;5038423;28;51016;-56
2021/08/06 01:59:32;;;;;;;;;6.50;6.50;;;;;24.64;45.90;99997.44;5038842;28;51209;-54
2021/08/06 02:01:58;;;;;;;;;5.00;4.75;;;;;24.64;46.16;99994.66;5038635;28;51030;-55
2021/08/06 02:04:27;;;;;;;;;5.00;4.50;;;;;24.64;46.09;99979.97;5038904;28;51415;-56
2021/08/06 02:06:53;;;;;;;;;5.75;5.75;;;;;24.63;46.07;99981.91;5038105;28;50956;-56
2021/08/06 02:09:21;;;;;;;;;4.25;4.25;;;;;24.64;46.04;99982.75;5038265;28;51372;-56
2021/08/06 02:11:47;;;;;;;;;9.50;6.75;;;;;24.63;45.93;99987.47;5038108;28;51207;-56
2021/08/06 02:14:15;;;;;;;;;3.50;3.50;;;;;24.64;46.04;99991.06;5038682;28;51399;-57
2021/08/06 02:16:42;;;;;;;;;8.00;6.00;;;;;24.64;45.95;99985.53;5038160;28;50904;-53
2021/08/06 02:19:09;;;;;;;;;4.25;3.00;;;;;24.63;46.16;99986.63;5037772;28;51126;-55
2021/08/06 02:21:37;;;;;;;;;4.25;4.25;;;;;24.63;46.13;99984.69;5038251;28;51036;-55
2021/08/06 02:24:09;;;;;;;;;8.25;4.25;;;;;24.63;45.68;99993.00;5038334;28;51158;-54
2021/08/06 02:26:36;;;;;;;;;3.50;3.00;;;;;24.63;46.01;100000.47;5037524;28;51902;-55
2021/08/06 02:29:06;;;;;;;;;5.25;4.25;;;;;24.62;45.99;99993.28;5037994;28;51041;-54
2021/08/06 02:31:33;;;;;;;;;3.75;3.00;;;;;24.61;46.28;100002.69;5038095;28;51051;-55
2021/08/06 02:33:58;;;;;;;;;3.25;3.00;;;;;24.63;45.78;100006.00;5038205;28;50946;-54
2021/08/06 02:36:24;;;;;;;;;3.50;2.00;;;;;24.62;45.92;100001.56;5037764;28;51877;-53
2021/08/06 02:38:49;;;;;;;;;3.50;3.50;;;;;24.62;45.83;100009.88;5037832;28;51011;-55
2021/08/06 02:41:15;;;;;;;;;3.25;3.25;;;;;24.61;45.94;100000.75;5037879;28;51619;-54
2021/08/06 02:43:40;;;;;;;;;2.50;2.50;;;;;24.62;45.95;100015.44;5037778;28;51260;-56
2021/08/06 02:46:06;;;;;;;;;3.25;3.00;;;;;24.62;45.96;100019.03;5037084;28;52140;-54
2021/08/06 02:48:31;;;;;;;;;2.50;2.00;;;;;24.62;46.12;100015.44;5037618;28;51201;-53
2021/08/06 02:50:57;;;;;;;;;3.00;3.00;;;;;24.61;45.68;100022.91;5037854;28;51279;-54
2021/08/06 02:53:22;;;;;;;;;2.00;2.00;;;;;24.62;46.08;100032.88;5037934;28;51166;-55
2021/08/06 02:55:47;;;;;;;;;4.00;2.75;;;;;24.61;46.21;100022.91;5035781;28;51736;-54
2021/08/06 02:58:13;;;;;;;;;1.75;1.75;;;;;24.61;46.17;100030.38;5037997;28;51607;-53
2021/08/06 03:00:38;;;;;;;;;5.25;3.00;;;;;24.60;45.93;100024.00;5037748;28;50961;-55
2021/08/06 03:03:04;;;;;;;;;1.50;1.50;;;;;24.61;46.00;100033.16;5037664;28;51266;-54
2021/08/06 03:05:29;;;;;;;;;2.50;2.50;;;;;24.61;45.63;100025.66;5037501;28;51038;-55
2021/08/06 03:07:54;;;;;;;;;0.75;0.75;;;;;24.61;45.94;100033.97;5037606;28;51169;-54
2021/08/06 03:10:22;;;;;;;;;3.00;2.25;;;;;24.61;46.12;100024.84;5037406;28;51125;-55
2021/08/06 03:12:49;;;;;;;;;2.00;2.00;;;;;24.60;46.15;100024.00;5036351;28;51018;-56
2021/08/06 03:15:16;;;;;;;;;1.50;1.50;;;;;24.59;45.94;100038.94;5037265;28;50946;-55
2021/08/06 03:17:42;;;;;;;;;2.00;2.00;;;;;24.60;45.74;100048.94;5037315;28;51298;-56
2021/08/06 03:20:21;;;;;;;;;2.00;2.00;;;;;24.60;46.06;100039.78;5035999;28;51119;-55
2021/08/06 03:22:48;;;;;;;;;3.00;2.50;;;;;24.59;45.87;100043.63;5037382;28;51330;-55
2021/08/06 03:25:14;;;;;;;;;2.00;2.00;;;;;24.60;45.88;100053.63;5036961;28;51024;-55
2021/08/06 03:27:40;;;;;;;;;3.75;3.00;;;;;24.59;45.95;100044.47;5036856;28;51133;-56
2021/08/06 03:30:08;;;;;;;;;4.00;4.00;;;;;24.59;45.99;100041.69;5037151;28;51097;-56
2021/08/06 03:32:34;;;;;;;;;5.25;5.00;;;;;24.58;46.04;100051.09;5037514;28;51142;-56
2021/08/06 03:34:59;;;;;;;;;3.00;3.00;;;;;24.59;46.22;100046.41;5037039;28;52127;-52
2021/08/06 03:37:24;;;;;;;;;5.00;5.00;;;;;24.59;46.03;100055.53;5035620;28;51206;-56
2021/08/06 03:39:50;;;;;;;;;9.25;6.75;;;;;24.58;45.74;100056.66;5037049;28;50991;-56
2021/08/06 03:42:15;;;;;;;;;7.75;7.25;;;;;24.59;46.10;100051.94;5036903;28;51035;-56
2021/08/06 03:44:41;;;;;;;;;6.25;6.00;;;;;24.58;45.88;100051.09;5036912;28;51746;-57
2021/08/06 03:47:06;;;;;;;;;8.50;7.25;;;;;24.58;45.66;100053.88;5036854;28;50955;-55
2021/08/06 03:49:31;;;;;;;;;14.50;12.00;;;;;24.59;45.74;100050.00;5036676;28;51001;-57
2021/08/06 03:51:57;;;;;;;;;13.00;12.00;;;;;24.59;45.87;100043.63;5037248;28;51293;-56
2021/08/06 03:54:22;;;;;;;;;12.00;8.75;;;;;24.59;45.96;100058.31;5036767;28;50980;-57
2021/08/06 03:56:48;;;;;;;;;15.50;9.75;;;;;24.58;45.82;100051.09;5035336;28;51201;-55
2021/08/06 03:59:13;;;;;;;;;14.50;12.75;;;;;24.58;45.69;100055.81;5036968;28;51142;-55
2021/08/06 04:01:38;;;;;;;;;20.25;15.25;;;;;24.57;45.91;100049.44;5036891;28;50884;-57
2021/08/06 04:04:04;;;;;;;;;16.00;12.75;;;;;24.57;45.68;100060.50;5036277;28;55012;-56
2021/08/06 04:06:29;;;;;;;;;27.50;20.00;;;;;24.57;45.81;100054.16;5036491;28;51090;-56
2021/08/06 04:08:55;;;;;;;;;21.50;17.25;;;;;24.57;45.66;100060.50;5036606;28;50978;-56
2021/08/06 04:11:20;;;;;;;;;22.00;16.75;;;;;24.57;45.82;100062.47;5036758;28;51208;-56
2021/08/06 04:13:46;;;;;;;;;20.25;19.00;;;;;24.56;45.62;100075.47;5036304;28;50941;-56
2021/08/06 04:16:12;;;;;;;;;23.50;20.25;;;;;24.57;45.61;100070.75;5036529;28;51101;-56
2021/08/06 04:18:38;;;;;;;;;24.75;21.00;;;;;24.56;45.95;100072.69;5034803;28;51181;-55
2021/08/06 04:21:03;;;;;;;;;26.25;19.75;;;;;24.56;46.01;100080.16;5036683;28;51295;-55
2021/08/06 04:23:28;;;;;;;;;35.50;30.00;;;;;24.56;45.83;100074.63;5036246;28;51667;-55
2021/08/06 04:25:54;;;;;;;;;32.00;26.50;;;;;24.56;46.07;100072.69;5036060;28;51402;-55
2021/08/06 04:28:19;;;;;;;;;31.25;26.00;;;;;24.56;45.83;100083.78;5036363;28;51045;-55
2021/08/06 04:30:45;;;;;;;;;32.50;29.50;;;;;24.55;45.72;100082.09;5036198;28;50908;-55
2021/08/06 04:33:10;;;;;;;;;32.25;26.50;;;;;24.56;45.86;100089.31;5035858;28;51002;-55
2021/08/06 04:35:35;;;;;;;;;33.75;29.25;;;;;24.54;45.78;100085.97;5036166;28;50927;-57
2021/08/06 04:38:01;;;;;;;;;42.00;31.75;;;;;24.55;45.80;100097.88;5035924;28;51169;-56
2021/08/06 04:40:27;;;;;;;;;42.00;31.50;;;;;24.55;45.98;100092.34;5036024;28;51014;-57
2021/08/06 04:42:52;;;;;;;;;30.75;27.00;;;;;24.55;45.96;100107.03;5035762;28;51042;-56
2021/08/06 04:45:18;;;;;;;;;38.00;30.75;;;;;24.54;46.00;100102.59;5035963;28;51137;-56
2021/08/06 04:47:50;;;;;;;;;40.25;32.75;;;;;24.55;45.94;100115.34;5035657;28;50978;-57
2021/08/06 04:50:18;;;;;;;;;47.00;33.50;;;;;24.55;45.75;100108.97;5036181;28;50889;-55
2021/08/06 04:52:44;;;;;;;;;45.50;34.75;;;;;24.55;45.70;100108.97;5035759;28;51236;-57
2021/08/06 04:55:10;;;;;;;;;41.25;36.00;;;;;24.55;45.92;100109.78;5035582;28;50936;-57
2021/08/06 04:57:36;;;;;;;;;46.50;36.50;;;;;24.55;46.05;100111.72;5036144;28;51094;-55
2021/08/06 05:00:03;;;;;;;;;51.75;37.75;;;;;24.54;45.71;100110.06;5036056;28;51373;-55
2021/08/06 05:02:29;;;;;;;;;48.50;36.25;;;;;24.54;45.98;100116.44;5035745;28;51801;-56
2021/08/06 05:04:54;;;;;;;;;56.25;41.25;;;;;24.54;45.79;100119.22;5035445;28;51141;-55
2021/08/06 05:07:19;;;;;;;;;52.50;40.50;;;;;24.53;45.72;100125.84;5035321;28;51002;-56
2021/08/06 05:09:45;;;;;;;;;47.00;37.50;;;;;24.53;45.65;100123.06;5035665;28;50998;-55
2021/08/06 05:12:11;;;;;;;;;52.00;39.50;;;;;24.54;45.72;100126.69;5035275;28;51278;-56
2021/08/06 05:14:36;;;;;;;;;51.75;39.00;;;;;24.53;45.76;100131.38;5035571;28;51010;-55
2021/08/06 05:17:02;;;;;;;;;55.00;41.00;;;;;24.54;45.60;100126.69;5035481;28;51454;-57
2021/08/06 05:19:27;;;;;;;;;52.25;42.00;;;;;24.54;45.83;100130.28;5035372;28;51200;-57
2021/08/06 05:21:53;;;;;;;;;47.25;39.25;;;;;24.54;45.83;100126.69;5035395;28;51961;-55
2021/08/06 05:24:18;;;;;;;;;49.00;38.75;;;;;24.54;45.58;100132.22;5035496;28;51370;-56
2021/08/06 05:26:43;;;;;;;;;54.25;42.25;;;;;24.53;45.82;100128.63;5034996;28;50883;-54
2021/08/06 05:29:09;;;;;;;;;54.50;41.00;;;;;24.54;45.52;100129.44;5035508;28;51013;-56
2021/08/06 05:31:34;;;;;;;;;50.00;39.75;;;;;24.52;45.81;100126.94;5035060;28;50991;-55
2021/08/06 05:34:00;;;;;;;;;50.75;39.25;;;;;24.53;45.81;100127.78;5035277;28;51030;-56
2021/08/06 05:36:25;;;;;;;;;52.75;42.25;;;;;24.52;45.56;100124.19;5035400;28;51176;-56
2021/08/06 05:38:50;;;;;;;;;48.75;37.00;;;;;24.52;45.68;100126.94;5035483;28;51361;-57
2021/08/06 05:41:16;;;;;;;;;49.75;37.00;;;;;24.52;45.67;100126.13;5035116;28;51996;-57
2021/08/06 05:43:41;;;;;;;;;47.50;35.75;;;;;24.51;45.69;100124.44;5035187;28;51112;-56
2021/08/06 05:46:07;;;;;;;;;42.25;34.75;;;;;24.52;45.50;100126.94;5035249;28;51112;-57
2021/08/06 05:48:32;;;;;;;;;46.00;34.50;;;;;24.52;45.78;100123.34;5035301;28;51268;-56
2021/08/06 05:50:57;;;;;;;;;47.25;36.50;;;;;24.52;45.73;100128.88;5035140;28;51406;-57
2021/08/06 05:53:23;;;;;;;;;45.00;34.75;;;;;24.51;45.77;100128.06;5034913;28;51041;-54
2021/08/06 05:55:48;;;;;;;;;44.50;35.75;;;;;24.51;45.71;100130.81;5035037;28;51049;-55
2021/08/06 05:58:14;;;;;;;;;40.50;30.50;;;;;24.52;45.43;100132.50;5035141;28;51254;-55
2021/08/06 06:00:39;;;;;;;;;39.25;33.25;;;;;24.51;45.88;100136.38;5035061;28;51178;-56
2021/08/06 06:03:04;;;;;;;;;48.50;34.25;;;;;24.51;45.85;100138.28;5034855;28;51081;-56
2021/08/06 06:05:30;;;;;;;;;41.00;31.50;;;;;24.51;45.79;100136.38;5035089;28;51015;-55
2021/08/06 06:07:55;;;;;;;;;38.00;30.50;;;;;24.51;45.36;100141.91;5034782;28;51046;-57
2021/08/06 06:10:22;;;;;;;;;30.75;30.00;;;;;24.50;45.81;100134.69;5034531;28;51988;-55
2021/08/06 06:12:49;;;;;;;;;38.75;30.25;;;;;24.50;45.42;100134.69;5034985;28;51485;-56
2021/08/06 06:15:15;;;;;;;;;32.50;27.50;;;;;24.51;45.47;100135.53;5034892;28;51404;-56
2021/08/06 06:17:41;;;;;;;;;35.00;31.00;;;;;24.50;45.59;100131.09;5034848;28;51083;-56
2021/08/06 06:20:07;;;;;;;;;30.25;27.00;;;;;24.50;45.65;100134.69;5035880;28;51762;-55
2021/08/06 06:22:32;;;;;;;;;27.50;24.75;;;;;24.50;46.01;100140.22;5038137;28;51034;-57
2021/08/06 06:24:58;;;;;;;;;31.50;28.00;;;;;24.50;45.62;100151.31;5038342;28;51045;-55
2021/08/06 06:27:23;;;;;;;;;29.75;27.25;;;;;24.48;45.49;100151.53;5037844;28;51305;-56
2021/08/06 06:29:49;;;;;;;;;28.25;25.25;;;;;24.50;45.59;100150.47;5037722;28;51781;-55
2021/08/06 06:32:14;;;;;;;;;26.00;21.00;;;;;24.50;45.79;100145.78;5038109;28;51095;-56
2021/08/06 06:34:39;;;;;;;;;33.00;23.50;;;;;24.49;45.76;100135.81;5038008;28;51056;-56
2021/08/06 06:37:05;;;;;;;;;28.75;22.50;;;;;24.49;45.58;100135.81;5037952;28;51048;-54
2021/08/06 06:39:30;;;;;;;;;22.50;20.25;;;;;24.50;45.72;100144.94;5037233;28;51703;-57
2021/08/06 06:41:55;;;;;;;;;23.00;20.00;;;;;24.49;45.63;100152.41;5037888;28;51093;-54
2021/08/06 06:44:21;;;;;;;;;22.00;15.00;;;;;24.50;45.75;100148.53;5037691;28;50943;-57
2021/08/06 06:46:46;;;;;;;;;20.75;19.75;;;;;24.49;45.53;100160.72;5037951;28;50881;-54
2021/08/06 06:49:12;;;;;;;;;19.75;19.00;;;;;24.48;45.87;100154.31;5037160;28;51631;-54
2021/08/06 06:51:37;;;;;;;;;23.50;19.00;;;;;24.48;45.76;100154.31;5037554;28;51095;-56
2021/08/06 06:54:02;;;;;;;;;16.00;14.00;;;;;24.48;45.39;100164.56;5037242;28;51057;-55
2021/08/06 06:56:28;;;;;;;;;17.75;13.50;;;;;24.48;45.59;100167.31;5037443;28;51335;-54
2021/08/06 06:58:53;;;;;;;;;14.50;13.00;;;;;24.49;45.82;100160.72;5037371;28;51136;-53
2021/08/06 07:01:19;;;;;;;;;20.00;16.00;;;;;24.49;45.79;100166.25;5037541;28;51010;-54
2021/08/06 07:03:44;;;;;;;;;9.75;8.50;;;;;24.49;45.75;100169.03;5037343;28;51025;-55
2021/08/06 07:06:09;;;;;;;;;17.75;14.50;;;;;24.48;45.75;100162.63;5037428;28;51198;-54
2021/08/06 07:08:35;;;;;;;;;15.25;12.50;;;;;24.48;45.60;100161.78;5037099;28;51889;-53
2021/08/06 07:11:00;;;;;;;;;13.25;11.75;;;;;24.48;45.72;100173.69;5037328;28;51236;-54
2021/08/06 07:13:25;;;;;;;;;11.25;6.50;;;;;24.49;45.59;100171.78;5037449;28;51414;-55
2021/08/06 07:15:51;;;;;;;;;12.50;10.00;;;;;24.48;45.28;100162.63;5037337;28;51010;-55
2021/08/06 07:18:16;;;;;;;;;12.25;9.25;;;;;24.50;45.63;100165.16;5036589;28;58418;-54
2021/08/06 07:20:42;;;;;;;;;10.75;9.50;;;;;24.49;45.88;100174.56;5037065;28;51291;-56
2021/08/06 07:23:07;;;;;;;;;11.75;8.50;;;;;24.49;45.70;100171.78;5037429;28;51200;-56
2021/08/06 07:25:33;;;;;;;;;8.00;8.00;;;;;24.50;45.56;100184.53;5037275;28;51109;-56
2021/08/06 07:27:58;;;;;;;;;9.25;7.75;;;;;24.49;45.72;100185.63;5036557;28;51061;-54
2021/08/06 07:30:24;;;;;;;;;8.25;8.25;;;;;24.48;45.43;100190.31;5036714;28;51071;-56
2021/08/06 07:32:50;;;;;;;;;12.00;10.25;;;;;24.48;45.61;100189.47;5037033;28;51014;-56
2021/08/06 07:35:16;;;;;;;;;8.25;5.75;;;;;24.48;45.68;100184.78;5037149;28;50897;-55
2021/08/06 07:37:43;;;;;;;;;8.00;7.50;;;;;24.49;45.66;100185.63;5036519;28;52661;-54
2021/08/06 07:40:10;;;;;;;;;11.25;8.25;;;;;24.49;45.72;100188.41;5036580;28;50977;-55
2021/08/06 07:42:36;;;;;;;;;8.50;5.00;;;;;24.50;45.65;100194.78;5036885;28;51082;-56
2021/08/06 07:45:02;;;;;;;;;6.50;6.25;;;;;24.49;45.37;100193.94;5036713;28;51052;-56
2021/08/06 07:47:28;;;;;;;;;11.50;6.50;;;;;24.49;45.61;100193.94;5036617;28;52085;-56
2021/08/06 07:49:53;;;;;;;;;6.75;5.75;;;;;24.50;45.85;100197.53;5036418;28;51092;-55
2021/08/06 07:52:19;;;;;;;;;6.25;3.00;;;;;24.48;45.56;100195.84;5036746;28;51122;-55
2021/08/06 07:54:44;;;;;;;;;6.75;6.50;;;;;24.50;45.55;100198.38;5036594;28;51012;-57
2021/08/06 07:57:10;;;;;;;;;9.25;4.75;;;;;24.50;45.59;100206.69;5036568;28;51157;-56
2021/08/06 07:59:37;;;;;;;;;4.50;3.75;;;;;24.49;45.64;100210.56;5036586;28;50999;-56
2021/08/06 08:02:03;;;;;;;;;5.00;3.50;;;;;24.50;45.79;100209.44;5036546;28;51169;-57
2021/08/06 08:04:28;;;;;;;;;3.00;3.00;;;;;24.50;45.58;100203.91;5036694;28;50964;-54
2021/08/06 08:06:53;;;;;;;;;4.00;4.00;;;;;24.50;45.65;100217.75;5036186;28;52768;-55
2021/08/06 08:09:19;;;;;;;;;4.00;3.00;;;;;24.50;45.70;100219.69;5036066;28;50939;-55
2021/08/06 08:11:44;;;;;;;;;3.75;3.00;;;;;24.50;45.65;100217.75;5035007;28;51086;-54
2021/08/06 08:14:09;;;;;;;;;4.25;4.00;;;;;24.50;45.81;100216.91;5036714;28;51182;-56
2021/08/06 08:16:35;;;;;;;;;5.00;3.00;;;;;24.50;45.65;100217.75;5036238;28;52251;-54
2021/08/06 08:19:00;;;;;;;;;5.00;4.00;;;;;24.50;45.58;100228.00;5035885;28;51192;-55
2021/08/06 08:21:26;;;;;;;;;3.00;3.00;;;;;24.50;45.39;100223.28;5036601;28;51552;-54
2021/08/06 08:23:51;;;;;;;;;5.75;3.75;;;;;24.50;45.44;100219.69;5036436;28;51053;-55
2021/08/06 08:26:16;;;;;;;;;2.00;2.00;;;;;24.50;45.58;100220.53;5035599;28;50962;-55
2021/08/06 08:28:42;;;;;;;;;3.50;2.00;;;;;24.49;45.48;100221.63;5035941;28;51042;-56
2021/08/06 08:31:07;;;;;;;;;3.00;3.00;;;;;24.51;45.50;100226.91;5036151;28;51100;-55
2021/08/06 08:33:33;;;;;;;;;1.75;1.25;;;;;24.50;45.77;100223.28;5036334;28;51305;-55
2021/08/06 08:35:58;;;;;;;;;4.25;3.00;;;;;24.51;45.92;100218.59;5035701;28;51165;-54
2021/08/06 08:38:24;;;;;;;;;3.75;2.00;;;;;24.50;45.82;100222.47;5035621;28;51102;-55
2021/08/06 08:40:50;;;;;;;;;2.00;2.00;;;;;24.50;45.75;100226.06;5036016;28;51078;-55
2021/08/06 08:43:16;;;;;;;;;3.00;3.00;;;;;24.49;45.54;100218.84;5035201;28;51017;-55
2021/08/06 08:45:41;;;;;;;;;2.50;1.75;;;;;24.51;46.04;100224.97;5035406;28;51016;-55
2021/08/06 08:48:12;;;;;;;;;1.25;1.00;;;;;24.49;45.58;100221.63;5035291;28;51041;-55
2021/08/06 08:50:39;;;;;;;;;2.00;2.00;;;;;24.51;45.41;100224.13;5035816;28;51211;-54
2021/08/06 08:53:06;;;;;;;;;3.50;2.25;;;;;24.50;45.66;100223.28;5036036;28;51038;-55
2021/08/06 08:55:32;;;;;;;;;2.75;1.75;;;;;24.51;45.56;100232.44;5034751;28;51957;-55
2021/08/06 08:57:58;;;;;;;;;1.00;1.00;;;;;24.52;46.00;100231.31;5035577;28;51098;-55
2021/08/06 09:00:25;;;;;;;;;2.00;2.00;;;;;24.52;45.58;100228.56;5035506;28;51177;-55
2021/08/06 09:02:51;;;;;;;;;2.50;1.75;;;;;24.50;45.66;100234.38;5036064;28;51068;-53
2021/08/06 09:05:20;;;;;;;;;2.00;1.75;;;;;24.50;45.59;100234.38;5033886;28;53854;-56
2021/08/06 09:07:45;;;;;;;;;0.25;0.25;;;;;24.51;45.60;100238.81;5035113;28;51407;-56
2021/08/06 09:10:20;;;;;;;;;3.25;1.75;;;;;24.51;45.56;100244.34;5035261;28;51062;-55
2021/08/06 09:12:52;;;;;;;;;2.00;1.50;;;;;24.51;45.39;100244.34;5035530;28;51149;-56
2021/08/06 09:15:39;;;;;;;;;4.00;2.00;;;;;24.51;45.36;100241.56;5034980;28;52010;-55
2021/08/06 09:18:24;;;;;;;;;1.25;1.25;;;;;24.52;45.49;100253.47;5033192;28;51499;-56
2021/08/06 09:21:01;;;;;;;;;2.50;1.25;;;;;24.52;45.45;100246.00;5034849;28;51146;-56
2021/08/06 09:23:39;;;;;;;;;1.00;1.00;;;;;24.53;45.62;100244.06;5035483;28;50972;-56
2021/08/06 09:26:07;;;;;;;;;4.00;1.50;;;;;24.53;45.32;100249.59;5034767;28;51083;-55
2021/08/06 09:28:33;;;;;;;;;3.50;0.50;;;;;24.53;45.47;100249.59;5034946;28;51386;-56
2021/08/06 09:31:14;;;;;;;;;1.00;1.00;;;;;24.54;45.38;100259.59;5034955;28;51119;-56
2021/08/06 09:33:40;;;;;;;;;1.50;0.00;;;;;24.54;45.08;100251.28;5034882;28;51048;-55
2021/08/06 09:36:13;;;;;;;;;1.25;1.25;;;;;24.55;45.38;100258.47;5034797;28;51038;-56
2021/08/06 09:38:38;;;;;;;;;1.25;1.00;;;;;24.55;45.34;100264.03;5034946;28;51304;-56
2021/08/06 09:41:04;;;;;;;;;2.00;0.75;;;;;24.56;45.10;100260.97;5034843;28;51076;-56
2021/08/06 09:43:29;;;;;;;;;1.50;0.00;;;;;24.56;45.20;100274.81;5035030;28;51229;-56
2021/08/06 09:45:55;;;;;;;;;2.50;1.75;;;;;24.55;45.15;100262.09;5034975;28;51147;-56
2021/08/06 09:48:25;;;;;;;;;2.00;1.00;;;;;24.56;45.71;100263.75;5034796;28;51437;-54
2021/08/06 09:50:51;;;;;;;;;1.00;1.00;;;;;24.56;45.22;100274.81;5035079;28;51166;-56
2021/08/06 09:53:19;;;;;;;;;1.00;1.00;;;;;24.56;45.32;100269.28;5035257;28;51236;-56
2021/08/06 09:55:48;;;;;;;;;0.00;0.00;;;;;24.57;45.67;100259.88;5037948;28;51689;-56
2021/08/06 09:58:17;;;;;;;;;3.00;0.25;;;;;24.57;45.29;100257.13;5038087;28;51186;-56
2021/08/06 10:00:46;;;;;;;;;1.00;1.00;;;;;24.58;45.69;100266.25;5038343;28;50968;-60
2021/08/06 10:03:34;;;;;;;;;1.00;1.00;;;;;24.58;45.46;100257.94;5038160;28;50966;-54
2021/08/06 10:06:16;;;;;;;;;1.50;0.50;;;;;24.58;45.40;100256.00;5038336;28;51084;-55
2021/08/06 10:08:43;;;;;;;;;1.25;1.25;;;;;24.59;45.58;100257.69;5038077;28;51951;-56
2021/08/06 10:11:09;;;;;;;;;0.25;0.25;;;;;24.58;45.15;100256.00;5038054;28;51074;-56
2021/08/06 10:13:36;;;;;;;;;1.00;1.00;;;;;24.58;45.33;100264.31;5038385;28;51263;-56
2021/08/06 10:16:02;;;;;;;;;0.00;0.00;;;;;24.60;45.34;100261.31;5038176;28;51035;-56
2021/08/06 10:18:27;;;;;;;;;2.00;0.00;;;;;24.60;45.48;100262.16;5037695;28;51009;-55
2021/08/06 10:20:53;;;;;;;;;1.00;0.00;;;;;24.60;45.31;100262.16;5038142;28;50892;-55
2021/08/06 10:23:19;;;;;;;;;1.75;1.00;;;;;24.60;45.53;100262.16;5038138;28;50934;-56
2021/08/06 10:25:45;;;;;;;;;0.00;0.00;;;;;24.61;45.36;100269.34;5037827;28;51858;-56
2021/08/06 10:28:11;;;;;;;;;1.00;1.00;;;;;24.61;45.53;100268.50;5037446;28;51370;-55
2021/08/06 10:30:39;;;;;;;;;0.00;0.00;;;;;24.61;45.42;100263.81;5037126;28;51085;-55
2021/08/06 10:33:28;;;;;;;;;1.00;1.00;;;;;24.62;45.54;100265.47;5037596;28;51304;-55
2021/08/06 10:35:55;;;;;;;;;1.00;1.00;;;;;24.63;44.99;100272.69;5037315;28;52711;-55
2021/08/06 10:38:41;;;;;;;;;2.00;2.00;;;;;24.62;45.36;100279.31;5037096;28;51025;-54
2021/08/06 10:41:23;;;;;;;;;1.75;1.75;;;;;24.63;45.25;100280.16;5037410;28;51197;-56
2021/08/06 10:44:06;;;;;;;;;1.50;1.50;;;;;24.63;45.44;100269.91;5037244;28;51226;-54
2021/08/06 10:46:58;;;;;;;;;0.75;0.75;;;;;24.63;45.26;100271.84;5036731;28;51818;-56
2021/08/06 10:49:25;;;;;;;;;1.00;1.00;;;;;24.63;45.18;100269.91;5036610;28;51300;-56
2021/08/06 10:52:10;;;;;;;;;1.00;0.25;;;;;24.64;45.25;100267.97;5036127;28;51125;-55
2021/08/06 10:54:36;;;;;;;;;0.75;0.75;;;;;24.64;45.53;100284.59;5037236;28;51382;-56
2021/08/06 10:57:16;;;;;;;;;1.50;0.25;;;;;24.64;45.20;100266.03;5037090;28;51088;-54
2021/08/06 10:59:42;;;;;;;;;1.00;0.25;;;;;24.64;45.43;100268.81;5037011;28;51308;-56
2021/08/06 11:02:33;;;;;;;;;1.00;1.00;;;;;24.65;45.00;100267.72;5036687;28;51141;-55
2021/08/06 11:04:59;;;;;;;;;1.25;1.25;;;;;24.65;45.35;100270.47;5036481;28;51412;-56
2021/08/06 11:07:33;;;;;;;;;0.00;0.00;;;;;24.66;45.38;100274.91;5036396;28;51085;-56
2021/08/06 11:09:59;;;;;;;;;1.00;1.00;;;;;24.65;45.63;100273.25;5036738;28;51314;-56
2021/08/06 11:12:34;;;;;;;;;0.00;0.00;;;;;24.66;45.62;100276.84;5036862;28;51026;-56
2021/08/06 11:15:03;;;;;;;;;2.00;2.00;;;;;24.66;45.19;100274.91;5036988;28;50880;-55
2021/08/06 11:17:43;;;;;;;;;1.00;1.00;;;;;24.66;45.41;100271.31;5035836;28;51056;-57
2021/08/06 11:20:15;;;;;;;;;0.00;0.00;;;;;24.65;45.12;100270.47;5036573;28;51320;-56
2021/08/06 11:22:43;;;;;;;;;0.75;0.75;;;;;24.65;45.03;100264.94;5036848;28;51150;-55
2021/08/06 11:25:23;;;;;;;;;1.00;1.00;;;;;24.66;45.33;100265.78;5036939;28;50964;-57